Time;durP1;ratioP1;P1;durP2;ratioP2;P2;SDS_P1;SDS_P2;PMS_P1;PMS_P2;Temp;Humidity;BMP_temperature;BMP_pressure;BME280_temperature;BME280_humidity;BME280_pressure;Samples;Min_cycle;Max_cycle;Signal;HPM_P1;HPM_P2
2022/07/05 00:00:58;;;;;;;5.65;3.13;;;21.20;81.00;;;;;;5012791;28;20030;-67
2022/07/05 00:03:24;;;;;;;4.55;2.90;;;21.10;81.20;;;;;;5013219;28;20022;-67
2022/07/05 00:05:50;;;;;;;4.95;2.42;;;21.10;81.30;;;;;;5013164;28;20025;-69
2022/07/05 00:08:15;;;;;;;8.13;2.72;;;21.10;81.20;;;;;;5012947;28;20490;-68
2022/07/05 00:10:42;;;;;;;4.07;2.58;;;21.10;81.30;;;;;;5013071;28;20093;-69
2022/07/05 00:13:07;;;;;;;5.93;2.42;;;21.10;81.50;;;;;;5013050;28;20037;-68
2022/07/05 00:15:33;;;;;;;4.53;2.38;;;21.10;81.50;;;;;;5012829;28;20387;-68
2022/07/05 00:17:59;;;;;;;3.40;2.40;;;21.00;82.20;;;;;;5012593;28;20026;-68
2022/07/05 00:20:25;;;;;;;7.03;2.78;;;21.00;81.60;;;;;;5012894;28;20029;-69
2022/07/05 00:22:50;;;;;;;5.32;2.20;;;21.00;81.90;;;;;;5016449;28;20109;-68
2022/07/05 00:25:16;;;;;;;5.18;2.58;;;20.90;82.00;;;;;;5016952;28;20049;-69
2022/07/05 00:27:41;;;;;;;6.75;2.65;;;20.90;82.10;;;;;;5016553;28;20033;-69
2022/07/05 00:30:08;;;;;;;5.93;2.38;;;20.90;82.20;;;;;;5016148;28;20057;-68
2022/07/05 00:32:34;;;;;;;4.10;2.30;;;20.90;82.40;;;;;;5016704;28;20399;-69
2022/07/05 00:34:59;;;;;;;5.22;2.67;;;20.80;82.30;;;;;;5016637;28;20467;-69
2022/07/05 00:37:25;;;;;;;9.82;2.65;;;20.80;82.20;;;;;;5016243;28;20483;-69
2022/07/05 00:39:51;;;;;;;5.70;2.75;;;20.80;82.40;;;;;;5016516;28;20126;-69
2022/07/05 00:42:17;;;;;;;4.55;2.60;;;20.80;82.40;;;;;;5016550;28;20121;-69
2022/07/05 00:44:42;;;;;;;8.18;2.72;;;20.80;82.60;;;;;;5016331;28;20034;-68
2022/07/05 00:47:10;;;;;;;9.13;2.65;;;20.70;82.60;;;;;;5015877;28;20022;-68
2022/07/05 00:49:37;;;;;;;4.10;2.28;;;20.70;82.80;;;;;;5016078;28;20028;-69
2022/07/05 00:52:04;;;;;;;5.15;2.40;;;20.70;83.40;;;;;;5016224;28;20089;-68
2022/07/05 00:54:33;;;;;;;7.05;2.70;;;20.70;83.00;;;;;;5016398;28;20018;-71
2022/07/05 00:56:58;;;;;;;9.43;2.70;;;20.70;83.20;;;;;;5016212;28;20084;-69
2022/07/05 00:59:25;;;;;;;7.82;2.78;;;20.70;83.20;;;;;;5015535;28;20030;-66
2022/07/05 01:01:50;;;;;;;5.50;2.28;;;20.60;83.20;;;;;;4996611;28;20026;-69
2022/07/05 01:04:16;;;;;;;3.33;1.92;;;20.60;83.10;;;;;;4998331;28;20029;-68
2022/07/05 01:06:46;;;;;;;5.22;2.45;;;20.60;83.40;;;;;;5015552;28;20030;-69
2022/07/05 01:09:13;;;;;;;6.63;2.28;;;20.60;83.60;;;;;;5014929;28;20487;-69
2022/07/05 01:11:49;;;;;;;7.32;2.97;;;20.60;83.80;;;;;;5014745;28;20038;-71
2022/07/05 01:14:22;;;;;;;6.18;2.83;;;20.50;83.90;;;;;;5015261;28;20145;-69
2022/07/05 01:16:53;;;;;;;3.50;2.60;;;20.50;83.80;;;;;;5016324;28;20444;-64
2022/07/05 01:19:20;;;;;;;6.93;3.00;;;20.40;83.80;;;;;;5009091;28;20022;-69
2022/07/05 01:21:47;;;;;;;6.68;3.00;;;20.40;84.40;;;;;;5009098;28;20029;-64
2022/07/05 01:24:15;;;;;;;7.85;2.95;;;20.40;84.20;;;;;;5010247;28;20045;-69
2022/07/05 01:26:42;;;;;;;5.18;2.45;;;20.40;84.40;;;;;;5007028;28;20072;-69
2022/07/05 01:29:09;;;;;;;5.07;2.22;;;20.30;84.40;;;;;;5007846;28;20025;-68
2022/07/05 01:31:39;;;;;;;4.55;2.00;;;20.40;84.30;;;;;;5008892;28;20061;-68
2022/07/05 01:34:05;;;;;;;8.73;3.03;;;20.60;83.60;;;;;;5009681;28;20014;-69
2022/07/05 01:36:33;;;;;;;5.13;2.40;;;20.70;83.20;;;;;;5003860;28;20382;-68
2022/07/05 01:39:00;;;;;;;6.18;2.67;;;20.80;83.00;;;;;;5004446;28;20026;-68
2022/07/05 01:41:25;;;;;;;5.10;2.40;;;20.80;82.60;;;;;;5012836;28;20109;-68
2022/07/05 01:43:51;;;;;;;3.67;2.50;;;20.80;83.00;;;;;;5014054;28;20128;-67
2022/07/05 01:46:21;;;;;;;5.60;2.92;;;20.70;82.90;;;;;;5015170;28;20125;-67
2022/07/05 01:48:48;;;;;;;10.05;3.28;;;20.50;83.40;;;;;;5014964;28;20045;-67
2022/07/05 01:51:22;;;;;;;7.32;3.30;;;20.40;83.80;;;;;;5014844;28;20084;-67
2022/07/05 01:53:51;;;;;;;6.72;3.42;;;20.30;84.00;;;;;;5015138;28;20583;-67
2022/07/05 01:56:16;;;;;;;6.93;2.75;;;20.20;84.20;;;;;;5015114;28;20026;-67
2022/07/05 01:58:42;;;;;;;6.47;3.35;;;20.20;84.40;;;;;;5014321;28;20049;-66
2022/07/05 02:01:08;;;;;;;7.75;3.60;;;20.20;84.50;;;;;;5014960;28;20014;-68
2022/07/05 02:03:35;;;;;;;14.65;3.45;;;20.20;84.40;;;;;;5014942;28;20026;-67
2022/07/05 02:06:01;;;;;;;10.00;3.65;;;20.10;84.40;;;;;;5015004;28;20105;-67
2022/07/05 02:08:30;;;;;;;7.55;3.38;;;20.10;84.40;;;;;;5014687;28;20026;-67
2022/07/05 02:10:56;;;;;;;6.15;3.35;;;20.00;84.50;;;;;;5014502;28;20038;-63
2022/07/05 02:13:22;;;;;;;6.70;3.83;;;20.00;84.70;;;;;;5014765;28;20050;-67
2022/07/05 02:15:48;;;;;;;5.10;2.90;;;20.00;84.70;;;;;;5014865;28;20398;-67
2022/07/05 02:18:13;;;;;;;8.18;3.60;;;20.00;84.60;;;;;;5014550;28;20034;-67
2022/07/05 02:20:40;;;;;;;9.48;3.55;;;20.00;84.50;;;;;;5014839;28;20026;-67
2022/07/05 02:23:07;;;;;;;11.68;3.65;;;20.00;84.60;;;;;;5014797;28;20435;-68
2022/07/05 02:25:32;;;;;;;10.13;3.65;;;19.90;84.50;;;;;;5014479;28;20385;-67
2022/07/05 02:27:58;;;;;;;8.77;3.28;;;19.90;84.60;;;;;;5014406;28;20431;-67
2022/07/05 02:30:24;;;;;;;6.95;4.00;;;19.90;84.60;;;;;;5014482;28;20061;-67
2022/07/05 02:32:49;;;;;;;5.03;3.47;;;19.90;84.50;;;;;;5014606;28;20037;-67
2022/07/05 02:35:15;;;;;;;6.82;3.00;;;19.90;84.50;;;;;;5014307;28;20022;-67
2022/07/05 02:37:41;;;;;;;7.28;3.10;;;19.80;84.50;;;;;;5014504;28;20030;-66
2022/07/05 02:40:08;;;;;;;7.93;3.58;;;19.80;84.60;;;;;;5013890;28;20106;-68
2022/07/05 02:42:34;;;;;;;7.50;3.65;;;19.80;84.50;;;;;;5014426;28;20027;-67
2022/07/05 02:44:59;;;;;;;7.85;3.63;;;19.80;84.60;;;;;;5014238;28;20562;-67
2022/07/05 02:47:25;;;;;;;4.68;3.05;;;19.80;84.70;;;;;;5014245;28;20069;-67
2022/07/05 02:49:51;;;;;;;9.90;3.55;;;19.80;85.20;;;;;;5014085;28;20105;-67
2022/07/05 02:52:17;;;;;;;6.18;3.25;;;19.80;84.80;;;;;;5014596;28;20436;-67
2022/07/05 02:54:43;;;;;;;7.40;3.78;;;19.70;84.90;;;;;;5013875;28;20477;-65
2022/07/05 02:57:08;;;;;;;7.97;3.33;;;19.70;85.00;;;;;;5014440;28;20030;-68
2022/07/05 02:59:34;;;;;;;6.93;3.28;;;19.70;84.90;;;;;;5013989;28;20468;-68
2022/07/05 03:01:59;;;;;;;8.95;3.65;;;19.60;85.00;;;;;;5013990;28;20030;-68
2022/07/05 03:04:25;;;;;;;5.93;3.00;;;19.60;85.30;;;;;;5013852;28;20036;-66
2022/07/05 03:06:50;;;;;;;10.32;3.70;;;19.60;85.30;;;;;;5014100;28;20084;-68
2022/07/05 03:09:16;;;;;;;8.60;3.67;;;19.60;85.10;;;;;;5013382;28;20033;-67
2022/07/05 03:11:41;;;;;;;6.78;3.10;;;19.60;85.20;;;;;;5010202;28;20463;-67
2022/07/05 03:14:07;;;;;;;6.18;3.53;;;19.60;85.30;;;;;;5011015;28;20045;-67
2022/07/05 03:16:33;;;;;;;7.88;3.47;;;19.60;85.30;;;;;;5013513;28;20018;-66
2022/07/05 03:18:59;;;;;;;6.28;3.33;;;19.60;85.30;;;;;;5010914;28;20438;-67
2022/07/05 03:21:24;;;;;;;4.38;3.53;;;19.50;85.30;;;;;;5012951;28;20463;-65
2022/07/05 03:23:50;;;;;;;9.77;3.85;;;19.60;85.30;;;;;;5013411;28;20026;-66
2022/07/05 03:26:16;;;;;;;9.50;3.53;;;19.60;85.20;;;;;;5013477;28;20053;-68
2022/07/05 03:28:41;;;;;;;7.18;3.20;;;19.50;85.40;;;;;;5013678;28;20097;-68
2022/07/05 03:31:07;;;;;;;9.00;3.53;;;19.60;85.50;;;;;;5013351;28;20042;-65
2022/07/05 03:33:32;;;;;;;8.48;3.80;;;19.50;85.50;;;;;;5013599;28;20028;-67
2022/07/05 03:35:58;;;;;;;7.07;3.38;;;19.50;85.60;;;;;;5013258;28;20471;-67
2022/07/05 03:38:23;;;;;;;5.95;3.42;;;19.50;85.40;;;;;;5013268;28;20471;-67
2022/07/05 03:40:49;;;;;;;7.90;3.63;;;19.50;85.60;;;;;;5013517;28;20463;-67
2022/07/05 03:43:15;;;;;;;4.70;3.60;;;19.50;85.60;;;;;;5013258;28;20408;-65
2022/07/05 03:45:40;;;;;;;7.30;3.80;;;19.50;85.80;;;;;;5013362;28;20026;-67
2022/07/05 03:48:06;;;;;;;8.65;3.83;;;19.50;85.70;;;;;;5012954;28;20084;-66
2022/07/05 03:50:32;;;;;;;11.82;3.95;;;19.50;85.60;;;;;;5013232;28;20092;-66
2022/07/05 03:52:58;;;;;;;7.03;3.67;;;19.50;85.70;;;;;;5013205;28;20053;-67
2022/07/05 03:55:24;;;;;;;8.23;3.97;;;19.50;85.90;;;;;;5013429;28;20022;-67
2022/07/05 03:57:50;;;;;;;8.77;4.30;;;19.40;85.90;;;;;;5019392;28;20471;-66
2022/07/05 04:00:16;;;;;;;10.27;3.90;;;19.40;85.80;;;;;;5019660;28;20049;-67
2022/07/05 04:02:41;;;;;;;6.60;4.03;;;19.40;85.90;;;;;;5019935;28;20096;-67
2022/07/05 04:05:07;;;;;;;9.52;3.78;;;19.50;85.90;;;;;;5019617;28;20415;-65
2022/07/05 04:07:33;;;;;;;7.70;4.07;;;19.40;85.90;;;;;;5019348;28;20033;-67
2022/07/05 04:09:59;;;;;;;7.15;3.90;;;19.50;85.90;;;;;;5019142;28;20070;-65
2022/07/05 04:12:25;;;;;;;6.10;4.00;;;19.40;86.00;;;;;;5019680;28;20176;-65
2022/07/05 04:14:50;;;;;;;6.55;4.10;;;19.40;86.10;;;;;;5019830;28;20517;-66
2022/07/05 04:17:16;;;;;;;7.80;3.88;;;19.40;86.10;;;;;;5019443;28;20029;-65
2022/07/05 04:19:42;;;;;;;6.15;3.70;;;19.50;86.20;;;;;;5019845;28;20024;-67
2022/07/05 04:22:07;;;;;;;8.68;4.75;;;19.40;86.00;;;;;;5019388;28;20026;-68
2022/07/05 04:25:16;;;;;;;6.72;3.80;;;19.40;86.10;;;;;;5019865;28;20030;-67
2022/07/05 04:27:18;;;;;;;8.77;3.92;;;19.40;86.80;;;;;;5019218;28;20045;-67
2022/07/05 04:29:44;;;;;;;12.45;5.15;;;19.40;86.10;;;;;;5019442;28;20034;-67
2022/07/05 04:32:09;;;;;;;11.25;4.10;;;19.40;86.30;;;;;;5019132;28;20144;-67
2022/07/05 04:34:35;;;;;;;8.95;4.43;;;19.40;86.30;;;;;;5019558;28;20076;-67
2022/07/05 04:37:00;;;;;;;8.07;4.32;;;19.30;86.30;;;;;;5001494;28;20072;-67
2022/07/05 04:39:26;;;;;;;9.10;3.90;;;19.40;86.60;;;;;;5019434;28;20022;-67
2022/07/05 04:41:51;;;;;;;9.65;3.90;;;19.40;86.40;;;;;;5019326;28;20026;-68
2022/07/05 04:44:17;;;;;;;11.70;4.30;;;19.40;86.40;;;;;;5019240;28;20052;-67
2022/07/05 04:46:42;;;;;;;6.88;4.63;;;19.40;86.30;;;;;;5019318;28;20026;-67
2022/07/05 04:49:08;;;;;;;8.38;4.68;;;19.30;86.50;;;;;;5019249;28;20025;-67
2022/07/05 04:51:33;;;;;;;8.95;4.20;;;19.30;86.50;;;;;;5019060;28;20037;-65
2022/07/05 04:53:59;;;;;;;9.57;4.75;;;19.30;86.70;;;;;;5019436;28;20440;-66
2022/07/05 04:56:25;;;;;;;10.55;5.05;;;19.30;86.80;;;;;;5019167;28;20383;-67
2022/07/05 04:58:50;;;;;;;8.88;4.45;;;19.30;87.00;;;;;;5001560;28;20025;-68
2022/07/05 05:01:16;;;;;;;5.82;3.95;;;19.40;86.90;;;;;;5018079;28;20522;-67
2022/07/05 05:03:41;;;;;;;7.93;4.55;;;19.40;87.10;;;;;;5019103;28;20026;-67
2022/07/05 05:06:07;;;;;;;7.63;4.07;;;19.40;87.10;;;;;;5018507;28;20022;-66
2022/07/05 05:08:33;;;;;;;7.35;4.22;;;19.40;87.20;;;;;;5013015;28;20030;-66
2022/07/05 05:10:58;;;;;;;7.40;3.97;;;19.40;86.80;;;;;;5015717;28;20538;-66
2022/07/05 05:13:24;;;;;;;8.43;4.35;;;19.40;86.70;;;;;;5015936;28;20440;-66
2022/07/05 05:15:49;;;;;;;6.95;4.40;;;19.40;86.60;;;;;;5016058;28;20508;-65
2022/07/05 05:18:18;;;;;;;8.05;4.30;;;19.50;86.60;;;;;;5015792;28;20468;-67
2022/07/05 05:20:43;;;;;;;6.28;3.95;;;19.50;86.60;;;;;;5015628;28;20104;-68
2022/07/05 05:23:09;;;;;;;5.85;4.05;;;19.40;86.60;;;;;;5015869;28;20105;-67
2022/07/05 05:25:36;;;;;;;7.90;4.70;;;19.40;86.60;;;;;;5015625;28;20028;-65
2022/07/05 05:28:02;;;;;;;7.10;4.25;;;19.40;86.80;;;;;;5015603;28;20029;-67
2022/07/05 05:30:27;;;;;;;4.95;4.00;;;19.40;87.10;;;;;;5015531;28;20042;-67
2022/07/05 05:32:53;;;;;;;6.65;4.05;;;19.40;87.10;;;;;;5015630;28;20042;-67
2022/07/05 05:35:20;;;;;;;9.68;4.90;;;19.40;87.20;;;;;;5015227;28;20431;-67
2022/07/05 05:37:53;;;;;;;11.90;5.13;;;19.40;87.30;;;;;;5015413;28;20482;-68
2022/07/05 05:40:19;;;;;;;10.60;4.90;;;19.50;87.40;;;;;;5015505;28;20037;-69
2022/07/05 05:42:45;;;;;;;10.38;4.80;;;19.50;88.20;;;;;;5015358;28;20033;-68
2022/07/05 05:45:12;;;;;;;9.70;5.15;;;19.70;88.50;;;;;;5015537;28;20395;-69
2022/07/05 05:47:55;;;;;;;13.82;4.97;;;19.80;88.70;;;;;;5015130;28;20034;-68
2022/07/05 05:50:22;;;;;;;7.93;4.53;;;20.00;88.20;;;;;;5015150;28;20065;-69
2022/07/05 05:52:49;;;;;;;9.15;4.68;;;20.20;87.70;;;;;;5015051;28;20468;-67
2022/07/05 05:55:14;;;;;;;11.40;5.30;;;20.30;87.80;;;;;;5014968;28;20029;-67
2022/07/05 05:57:40;;;;;;;12.18;4.43;;;20.40;87.60;;;;;;5014876;28;20025;-68
2022/07/05 06:00:07;;;;;;;9.45;4.82;;;20.50;87.60;;;;;;5015251;28;20037;-65
2022/07/05 06:02:33;;;;;;;9.55;4.97;;;20.60;87.70;;;;;;5015024;28;20022;-69
2022/07/05 06:04:58;;;;;;;13.93;6.05;;;20.60;87.80;;;;;;5014893;28;20037;-69
2022/07/05 06:07:24;;;;;;;9.98;5.55;;;20.70;87.50;;;;;;5014890;28;20030;-66
2022/07/05 06:09:49;;;;;;;12.35;6.53;;;20.80;87.50;;;;;;5014542;28;20021;-68
2022/07/05 06:12:15;;;;;;;11.50;5.47;;;20.80;87.30;;;;;;5014891;28;20066;-67
2022/07/05 06:14:41;;;;;;;14.50;6.00;;;20.90;87.40;;;;;;5014845;28;20049;-67
2022/07/05 06:17:06;;;;;;;9.88;5.97;;;21.00;87.60;;;;;;5014833;28;20034;-67
2022/07/05 06:19:32;;;;;;;15.13;6.95;;;21.10;87.60;;;;;;5014022;28;20060;-66
2022/07/05 06:21:58;;;;;;;15.10;7.90;;;21.20;88.30;;;;;;5014657;28;20034;-67
2022/07/05 06:24:23;;;;;;;16.75;6.97;;;21.20;87.10;;;;;;5014514;28;20056;-67
2022/07/05 06:26:49;;;;;;;16.10;7.47;;;21.40;86.70;;;;;;5014819;28;20085;-67
2022/07/05 06:29:14;;;;;;;20.23;8.25;;;21.40;86.50;;;;;;5014312;28;20121;-67
2022/07/05 06:31:40;;;;;;;16.58;7.55;;;21.40;86.40;;;;;;5014488;28;20045;-66
2022/07/05 06:34:06;;;;;;;18.30;8.35;;;21.50;86.30;;;;;;5014353;28;20018;-66
2022/07/05 06:36:31;;;;;;;17.67;8.93;;;21.50;86.40;;;;;;5014522;28;20418;-67
2022/07/05 06:38:57;;;;;;;19.38;8.85;;;21.60;86.20;;;;;;5014298;28;20026;-67
2022/07/05 06:41:22;;;;;;;14.15;6.57;;;21.60;86.60;;;;;;5014371;28;20030;-67
2022/07/05 06:43:48;;;;;;;13.13;7.00;;;21.70;86.60;;;;;;5013968;28;20061;-67
2022/07/05 06:46:13;;;;;;;13.10;6.47;;;21.80;86.40;;;;;;5014378;28;20113;-69
2022/07/05 06:48:39;;;;;;;12.90;7.05;;;21.70;86.20;;;;;;5013917;28;20018;-68
2022/07/05 06:51:05;;;;;;;14.50;6.80;;;21.70;86.20;;;;;;5014326;28;20476;-68
2022/07/05 06:53:30;;;;;;;12.98;6.28;;;21.80;86.40;;;;;;5014038;28;20479;-68
2022/07/05 06:55:56;;;;;;;12.10;5.68;;;21.80;86.90;;;;;;5014139;28;20045;-67
2022/07/05 06:58:21;;;;;;;10.68;5.72;;;21.90;86.50;;;;;;5014264;28;20025;-67
2022/07/05 07:00:47;;;;;;;15.80;6.07;;;21.90;86.50;;;;;;5014068;28;20372;-68
2022/07/05 07:03:13;;;;;;;15.75;7.35;;;22.00;86.50;;;;;;5013864;28;20030;-68
2022/07/05 07:05:38;;;;;;;14.02;8.45;;;22.00;86.90;;;;;;5013836;28;20022;-67
2022/07/05 07:10:48;;;;;;;15.55;8.75;;;22.20;87.10;;;;;;5013813;28;20169;-69
2022/07/05 07:13:13;;;;;;;15.25;8.32;;;22.30;87.60;;;;;;5013867;28;20393;-67
2022/07/05 07:15:40;;;;;;;13.40;7.70;;;22.30;86.00;;;;;;5013357;28;20030;-68
2022/07/05 07:18:06;;;;;;;15.48;7.97;;;22.40;85.50;;;;;;5013709;28;20022;-67
2022/07/05 07:20:31;;;;;;;16.77;7.63;;;22.40;85.50;;;;;;5013711;28;20034;-68
2022/07/05 07:22:57;;;;;;;12.68;6.70;;;22.40;85.40;;;;;;5013890;28;20022;-67
2022/07/05 07:25:23;;;;;;;13.80;6.00;;;22.40;86.10;;;;;;5013707;28;20149;-67
2022/07/05 07:27:54;;;;;;;12.05;6.20;;;22.50;86.40;;;;;;5013481;28;20025;-67
2022/07/05 07:30:25;;;;;;;10.93;5.72;;;22.50;86.50;;;;;;5012888;28;20030;-67
2022/07/05 07:32:52;;;;;;;13.25;5.70;;;22.60;86.80;;;;;;5013403;28;20061;-67
2022/07/05 07:35:17;;;;;;;10.02;5.88;;;22.60;87.20;;;;;;5013366;28;20053;-67
2022/07/05 07:37:43;;;;;;;9.50;5.43;;;22.70;86.50;;;;;;5013460;28;20112;-67
2022/07/05 07:40:09;;;;;;;12.40;5.70;;;22.70;86.10;;;;;;5013575;28;20033;-66
2022/07/05 07:42:35;;;;;;;13.55;6.10;;;22.80;85.70;;;;;;5013277;28;20149;-69
2022/07/05 07:45:03;;;;;;;13.25;5.63;;;22.80;85.20;;;;;;5013026;28;20117;-67
2022/07/05 07:47:32;;;;;;;8.80;5.05;;;22.90;85.30;;;;;;5013231;28;20494;-69
2022/07/05 07:49:58;;;;;;;12.55;5.32;;;22.80;85.50;;;;;;5013051;28;20037;-68
2022/07/05 07:52:24;;;;;;;9.63;4.97;;;22.80;84.80;;;;;;5013424;28;20025;-69
2022/07/05 07:54:49;;;;;;;10.48;4.20;;;22.90;85.20;;;;;;5013133;28;20020;-67
2022/07/05 07:57:15;;;;;;;11.63;4.35;;;22.90;85.30;;;;;;5013230;28;20480;-67
2022/07/05 07:59:41;;;;;;;9.57;4.72;;;23.00;85.90;;;;;;5012972;28;20390;-68
2022/07/05 08:02:07;;;;;;;10.00;4.28;;;23.00;86.40;;;;;;5013171;28;20399;-68
2022/07/05 08:04:33;;;;;;;13.50;5.18;;;23.00;85.30;;;;;;5013145;28;20030;-68
2022/07/05 08:06:58;;;;;;;7.88;3.33;;;23.10;85.70;;;;;;5013013;28;20033;-68
2022/07/05 08:09:24;;;;;;;11.77;4.88;;;23.10;84.70;;;;;;5013439;28;20029;-66
2022/07/05 08:11:50;;;;;;;11.25;4.28;;;23.10;84.70;;;;;;5013053;28;20034;-68
2022/07/05 08:14:16;;;;;;;7.45;2.80;;;23.20;84.10;;;;;;5012888;28;20026;-68
2022/07/05 08:16:43;;;;;;;5.68;2.45;;;23.10;83.10;;;;;;5012939;28;20034;-67
2022/07/05 08:21:52;;;;;;;10.00;3.85;;;23.10;82.10;;;;;;5013037;28;20080;-65
2022/07/05 08:24:18;;;;;;;10.75;4.07;;;23.20;82.90;;;;;;5013150;28;20026;-67
2022/07/05 08:26:43;;;;;;;7.32;3.10;;;23.20;83.00;;;;;;5012804;28;20025;-67
2022/07/05 08:29:11;;;;;;;6.68;3.05;;;23.30;82.90;;;;;;5012822;28;20023;-66
2022/07/05 08:31:40;;;;;;;7.70;3.05;;;23.30;83.10;;;;;;5012784;28;20057;-67
2022/07/05 08:34:05;;;;;;;6.35;2.70;;;23.40;83.10;;;;;;5012986;28;20022;-66
2022/07/05 08:36:31;;;;;;;5.03;2.20;;;23.40;82.50;;;;;;5012939;28;20057;-66
2022/07/05 08:38:56;;;;;;;6.90;2.83;;;23.40;82.10;;;;;;5012809;28;20486;-67
2022/07/05 08:41:23;;;;;;;9.70;2.80;;;23.40;81.90;;;;;;5013125;28;20077;-68
2022/07/05 08:43:51;;;;;;;5.43;2.58;;;23.40;82.00;;;;;;5015468;28;20042;-67
2022/07/05 08:46:18;;;;;;;10.90;2.60;;;23.40;81.80;;;;;;5016361;28;20097;-67
2022/07/05 08:48:47;;;;;;;8.70;2.55;;;23.50;82.50;;;;;;5016549;28;20472;-67
2022/07/05 08:51:13;;;;;;;9.10;2.97;;;23.50;82.50;;;;;;5016164;28;20046;-68
2022/07/05 08:53:40;;;;;;;7.95;2.85;;;23.50;81.80;;;;;;5016437;28;20022;-65
2022/07/05 08:56:08;;;;;;;8.55;2.58;;;23.60;81.10;;;;;;5016232;28;20105;-66
2022/07/05 08:58:35;;;;;;;6.60;1.92;;;23.70;79.90;;;;;;5016042;28;20026;-68
2022/07/05 09:01:02;;;;;;;7.60;2.28;;;23.60;79.30;;;;;;5016354;28;20030;-65
2022/07/05 09:03:46;;;;;;;8.00;2.13;;;23.60;79.30;;;;;;5016228;28;20085;-65
2022/07/05 09:06:15;;;;;;;5.85;2.17;;;23.70;79.90;;;;;;4998425;28;20387;-64
2022/07/05 09:08:41;;;;;;;7.03;1.73;;;23.70;79.70;;;;;;5015956;28;20022;-67
2022/07/05 09:11:12;;;;;;;4.57;2.35;;;23.70;79.40;;;;;;5016190;28;20097;-68
2022/07/05 09:13:40;;;;;;;5.90;2.80;;;23.60;79.20;;;;;;5014379;28;20113;-66
2022/07/05 09:16:07;;;;;;;6.07;2.60;;;23.70;78.50;;;;;;5016296;28;20025;-67
2022/07/05 09:18:44;;;;;;;7.00;2.70;;;23.70;78.90;;;;;;5015996;28;20018;-67
2022/07/05 09:21:20;;;;;;;4.45;1.63;;;23.70;78.30;;;;;;5015922;28;20080;-68
2022/07/05 09:24:06;;;;;;;4.80;2.15;;;23.70;78.20;;;;;;5015674;28;20032;-67
2022/07/05 09:26:33;;;;;;;7.55;3.22;;;23.70;77.80;;;;;;4998211;28;20045;-67
2022/07/05 09:28:59;;;;;;;9.27;3.15;;;23.80;77.80;;;;;;5015678;28;20026;-67
2022/07/05 09:31:35;;;;;;;5.53;2.72;;;23.80;77.00;;;;;;5015667;28;20030;-67
2022/07/05 09:34:08;;;;;;;4.35;2.22;;;23.80;76.90;;;;;;5015719;28;20474;-68
2022/07/05 09:36:52;;;;;;;6.50;2.38;;;23.80;76.60;;;;;;5015950;28;20053;-68
2022/07/05 09:39:31;;;;;;;7.28;2.67;;;23.80;76.00;;;;;;5015410;28;20029;-67
2022/07/05 09:42:23;;;;;;;4.50;1.85;;;23.80;75.70;;;;;;5015197;28;20048;-67
2022/07/05 09:44:51;;;;;;;7.70;2.55;;;23.80;76.20;;;;;;5015340;28;20122;-66
2022/07/05 09:47:18;;;;;;;6.18;2.47;;;23.80;76.20;;;;;;5015447;28;20092;-68
2022/07/05 09:49:48;;;;;;;6.15;2.05;;;23.80;76.20;;;;;;5015359;28;20534;-67
2022/07/05 09:52:30;;;;;;;8.55;2.67;;;23.90;76.50;;;;;;5015378;28;20053;-68
2022/07/05 09:55:16;;;;;;;7.47;2.42;;;23.90;75.90;;;;;;5014283;28;20092;-67
2022/07/05 09:57:43;;;;;;;3.95;2.15;;;23.90;75.90;;;;;;5015132;28;20036;-66
2022/07/05 10:00:11;;;;;;;4.25;1.33;;;23.90;75.70;;;;;;5015160;28;20573;-67
2022/07/05 10:02:44;;;;;;;4.95;2.35;;;23.90;76.20;;;;;;5015117;28;20022;-66
2022/07/05 10:05:20;;;;;;;4.93;2.13;;;23.90;75.70;;;;;;5014985;28;20030;-67
2022/07/05 10:08:00;;;;;;;2.70;1.55;;;24.10;73.00;;;;;;5014623;28;20026;-69
2022/07/05 10:10:28;;;;;;;4.05;1.33;;;24.10;69.70;;;;;;5014477;28;20026;-67
2022/07/05 10:12:59;;;;;;;4.25;1.60;;;24.10;68.80;;;;;;5014720;28;20034;-67
2022/07/05 10:15:28;;;;;;;2.37;1.07;;;24.10;69.70;;;;;;5014943;28;20026;-68
2022/07/05 10:18:20;;;;;;;4.70;1.33;;;24.10;72.50;;;;;;5014655;28;20049;-68
2022/07/05 10:20:46;;;;;;;6.07;1.50;;;24.10;73.10;;;;;;5014691;28;20074;-66
2022/07/05 10:23:12;;;;;;;4.07;1.25;;;24.00;74.00;;;;;;5014587;28;20026;-66
2022/07/05 10:25:40;;;;;;;2.38;1.00;;;24.00;74.40;;;;;;5014521;28;20025;-67
2022/07/05 10:28:07;;;;;;;3.33;1.35;;;24.00;74.70;;;;;;5014620;28;20024;-66
2022/07/05 10:30:33;;;;;;;2.97;1.25;;;24.00;74.80;;;;;;5014674;28;20044;-68
2022/07/05 10:33:01;;;;;;;3.92;1.77;;;24.00;74.80;;;;;;5014347;28;20053;-68
2022/07/05 10:35:27;;;;;;;4.35;1.30;;;24.10;73.90;;;;;;5014488;28;20037;-67
2022/07/05 10:37:53;;;;;;;6.38;1.40;;;24.10;73.40;;;;;;5014431;28;20030;-67
2022/07/05 10:40:19;;;;;;;3.35;1.02;;;24.10;71.80;;;;;;5014121;28;20030;-68
2022/07/05 10:42:56;;;;;;;4.25;1.33;;;24.20;70.90;;;;;;5014352;28;20033;-68
2022/07/05 10:45:36;;;;;;;3.10;1.10;;;24.20;70.60;;;;;;5014145;28;20032;-67
2022/07/05 10:48:13;;;;;;;4.00;1.33;;;24.20;71.00;;;;;;5014036;28;20017;-68
2022/07/05 10:50:59;;;;;;;7.22;1.40;;;24.30;70.30;;;;;;5014055;28;20033;-67
2022/07/05 10:53:32;;;;;;;4.50;1.48;;;24.30;70.20;;;;;;5013959;28;20109;-67
2022/07/05 10:56:04;;;;;;;2.83;1.10;;;24.30;71.00;;;;;;4996305;28;20060;-67
2022/07/05 10:58:40;;;;;;;3.08;1.10;;;24.30;71.10;;;;;;5014234;28;20109;-68
2022/07/05 11:01:11;;;;;;;4.43;1.50;;;24.30;70.40;;;;;;5013949;28;20017;-67
2022/07/05 11:03:38;;;;;;;2.83;1.20;;;24.30;70.60;;;;;;5013841;28;20387;-68
2022/07/05 11:06:06;;;;;;;2.72;1.08;;;24.30;69.70;;;;;;5012845;28;20273;-69
2022/07/05 11:09:00;;;;;;;6.63;1.10;;;24.30;70.10;;;;;;5013968;28;20025;-67
2022/07/05 11:11:33;;;;;;;3.28;0.80;;;24.30;70.50;;;;;;5007309;28;20069;-67
2022/07/05 11:14:25;;;;;;;3.63;0.70;;;24.30;69.80;;;;;;5013758;28;20037;-68
2022/07/05 11:17:10;;;;;;;2.20;0.88;;;24.40;68.80;;;;;;4986659;28;20084;-67
2022/07/05 11:20:07;;;;;;;4.07;0.80;;;24.30;68.80;;;;;;5013901;28;20029;-66
2022/07/05 11:22:34;;;;;;;1.88;0.70;;;24.40;69.70;;;;;;5007080;28;20029;-66
2022/07/05 11:25:01;;;;;;;4.25;0.85;;;24.30;69.50;;;;;;5013638;28;20018;-68
2022/07/05 11:27:32;;;;;;;2.70;0.90;;;24.40;67.90;;;;;;4996156;28;20471;-68
2022/07/05 11:29:58;;;;;;;3.22;0.90;;;24.40;68.80;;;;;;5013599;28;20479;-67
2022/07/05 11:32:36;;;;;;;2.03;0.80;;;24.40;67.60;;;;;;5013450;28;20515;-68
2022/07/05 11:35:19;;;;;;;4.68;0.68;;;24.40;67.30;;;;;;5011973;28;20388;-68
2022/07/05 11:37:56;;;;;;;4.30;0.90;;;24.40;67.20;;;;;;5013209;28;20057;-65
2022/07/05 11:40:22;;;;;;;1.95;0.70;;;24.40;68.50;;;;;;5013657;28;20049;-64
2022/07/05 11:42:49;;;;;;;2.05;0.50;;;24.40;68.30;;;;;;5013180;28;20396;-67
2022/07/05 11:45:15;;;;;;;2.83;0.60;;;24.40;68.70;;;;;;5013156;28;20061;-68
2022/07/05 11:47:41;;;;;;;4.15;0.80;;;24.30;68.90;;;;;;5013346;28;20068;-69
2022/07/05 11:50:08;;;;;;;3.33;0.70;;;24.40;67.50;;;;;;5012081;28;20026;-69
2022/07/05 11:52:35;;;;;;;1.48;0.50;;;24.40;67.80;;;;;;5013042;28;20391;-69
2022/07/05 11:55:11;;;;;;;5.15;0.88;;;24.40;67.50;;;;;;5013213;28;20029;-69
2022/07/05 11:57:37;;;;;;;2.90;0.70;;;24.40;67.90;;;;;;5013341;28;20110;-69
2022/07/05 12:00:04;;;;;;;4.22;0.63;;;24.40;67.70;;;;;;5013125;28;20476;-68
2022/07/05 12:02:30;;;;;;;4.80;0.77;;;24.40;67.80;;;;;;5013504;28;20029;-69
2022/07/05 12:04:57;;;;;;;3.83;0.77;;;24.40;67.90;;;;;;5013201;28;20021;-67
2022/07/05 12:07:30;;;;;;;2.10;0.82;;;24.40;66.80;;;;;;5012861;28;20022;-69
2022/07/05 12:12:42;;;;;;;3.72;1.00;;;24.40;68.40;;;;;;5013162;28;20125;-68
2022/07/05 12:15:15;;;;;;;4.43;0.95;;;24.40;67.80;;;;;;5013185;28;20052;-65
2022/07/05 12:17:45;;;;;;;3.63;0.70;;;24.50;66.30;;;;;;5014339;28;20022;-65
2022/07/05 12:20:13;;;;;;;3.58;0.82;;;24.50;66.30;;;;;;5016858;28;20069;-65
2022/07/05 12:22:44;;;;;;;2.95;0.77;;;24.50;66.10;;;;;;5017036;28;20026;-67
2022/07/05 12:25:14;;;;;;;3.03;0.70;;;24.50;66.50;;;;;;5017095;28;20026;-68
2022/07/05 12:27:42;;;;;;;2.05;0.55;;;24.50;66.60;;;;;;5016625;28;20075;-68
2022/07/05 12:30:10;;;;;;;4.15;0.68;;;24.50;67.20;;;;;;5016810;28;20112;-67
2022/07/05 12:33:12;;;;;;;1.48;0.50;;;24.50;65.30;;;;;;5016699;28;20380;-68
2022/07/05 12:35:45;;;;;;;3.10;0.70;;;24.60;65.60;;;;;;4985148;28;20042;-68
2022/07/05 12:38:14;;;;;;;4.40;0.80;;;24.60;65.00;;;;;;5016698;28;20018;-67
2022/07/05 12:40:41;;;;;;;3.13;0.60;;;24.50;65.50;;;;;;5016657;28;20041;-68
2022/07/05 12:43:11;;;;;;;6.07;0.73;;;24.50;63.70;;;;;;5016362;28;20503;-67
2022/07/05 12:45:38;;;;;;;2.63;0.65;;;24.60;64.60;;;;;;5016772;28;20030;-67
2022/07/05 12:48:06;;;;;;;3.58;0.90;;;24.60;64.50;;;;;;5016411;28;20025;-66
2022/07/05 12:51:04;;;;;;;4.45;0.80;;;24.60;65.20;;;;;;5016243;28;20041;-64
2022/07/05 12:59:04;;;;;;;3.38;0.70;;;24.60;61.90;;;;;;5016738;28;20040;-66
2022/07/05 13:01:39;;;;;;;3.63;0.70;;;24.60;62.10;;;;;;5016115;28;20471;-67
2022/07/05 13:04:10;;;;;;;2.53;0.55;;;24.60;62.00;;;;;;5015989;28;20034;-67